Time;durP1;ratioP1;P1;durP2;ratioP2;P2;SDS_P1;SDS_P2;PMS_P1;PMS_P2;Temp;Humidity;BMP_temperature;BMP_pressure;BME280_temperature;BME280_humidity;BME280_pressure;Samples;Min_cycle;Max_cycle;Signal;HPM_P1;HPM_P2
2022/10/20 00:01:38;;;;;;;0.77;0.77;;;;;;;11.38;76.96;99426.91;5073364;28;20206;-57
2022/10/20 00:04:05;;;;;;;0.50;0.50;;;;;;;11.34;77.56;99436.53;5072544;28;20206;-57
2022/10/20 00:06:33;;;;;;;1.17;0.90;;;;;;;11.32;77.73;99440.97;5073236;28;20207;-57
2022/10/20 00:09:03;;;;;;;0.60;0.60;;;;;;;11.27;77.82;99436.16;5072787;28;20195;-57
2022/10/20 00:11:31;;;;;;;0.40;0.40;;;;;;;11.13;78.47;99448.25;5073073;28;20230;-57
2022/10/20 00:14:00;;;;;;;0.83;0.70;;;;;;;11.09;78.42;99453.59;5072882;28;20658;-57
2022/10/20 00:16:29;;;;;;;0.50;0.50;;;;;;;11.15;78.34;99447.25;5072748;28;20223;-62
2022/10/20 00:18:56;;;;;;;2.13;1.93;;;;;;;11.19;78.04;99448.66;5073011;28;20214;-57
2022/10/20 00:21:25;;;;;;;0.97;0.70;;;;;;;10.98;78.72;99450.13;5072768;28;20229;-62
2022/10/20 00:23:52;;;;;;;0.60;0.60;;;;;;;11.05;78.32;99447.06;5072506;28;20207;-57
2022/10/20 00:26:21;;;;;;;0.90;0.90;;;;;;;10.95;78.82;99445.22;5072569;28;20219;-57
2022/10/20 00:28:50;;;;;;;0.87;0.87;;;;;;;10.86;79.35;99441.56;5072549;28;20203;-57
2022/10/20 00:31:17;;;;;;;0.83;0.60;;;;;;;10.88;79.20;99437.16;5072303;28;20241;-57
2022/10/20 00:33:45;;;;;;;1.07;0.97;;;;;;;10.78;79.84;99443.81;5072325;28;20206;-62
2022/10/20 00:36:13;;;;;;;0.90;0.90;;;;;;;10.82;80.17;99450.34;5072667;28;20269;-62
2022/10/20 00:38:41;;;;;;;2.07;1.20;;;;;;;10.78;79.66;99443.81;5072138;28;20203;-62
2022/10/20 00:41:08;;;;;;;1.50;1.07;;;;;;;10.57;80.83;99446.88;5072287;28;20215;-57
2022/10/20 00:43:44;;;;;;;0.70;0.70;;;;;;;10.59;81.02;99447.59;5072504;28;20651;-57
2022/10/20 00:46:15;;;;;;;0.80;0.80;;;;;;;10.52;81.38;99448.91;5072206;28;20233;-57
2022/10/20 00:48:42;;;;;;;0.90;0.90;;;;;;;10.52;81.72;99448.91;5071895;28;20187;-57
2022/10/20 00:51:12;;;;;;;1.13;0.80;;;;;;;10.53;81.81;99444.63;5072152;28;20612;-62
2022/10/20 00:53:38;;;;;;;1.00;0.90;;;;;;;10.52;81.58;99453.22;5072083;28;20195;-62
2022/10/20 00:56:06;;;;;;;1.20;0.87;;;;;;;10.56;81.54;99452.91;5072317;28;20226;-57
2022/10/20 00:58:34;;;;;;;0.57;0.57;;;;;;;10.57;81.37;99446.88;5071991;28;20195;-62
2022/10/20 01:01:01;;;;;;;0.80;0.70;;;;;;;10.46;81.87;99443.41;5072439;28;20233;-62
2022/10/20 01:03:35;;;;;;;0.77;0.77;;;;;;;10.35;82.42;99444.09;5071811;28;20197;-58
2022/10/20 01:06:03;;;;;;;0.67;0.67;;;;;;;10.35;82.32;99441.53;5071949;28;20225;-62
2022/10/20 01:08:30;;;;;;;0.50;0.50;;;;;;;10.32;82.77;99442.53;5071905;28;20203;-62
2022/10/20 01:11:06;;;;;;;0.60;0.60;;;;;;;10.25;83.01;99445.59;5071167;28;20632;-57
2022/10/20 01:13:47;;;;;;;0.57;0.57;;;;;;;10.29;83.25;99441.94;5071760;28;20202;-62
2022/10/20 01:16:20;;;;;;;0.70;0.70;;;;;;;10.12;83.88;99441.28;5071652;28;20609;-57
2022/10/20 01:18:57;;;;;;;0.80;0.80;;;;;;;10.16;84.00;99432.50;5071496;28;20190;-57
2022/10/20 01:21:52;;;;;;;0.80;0.80;;;;;;;10.21;83.79;99437.31;5071411;28;20651;-62
2022/10/20 01:24:46;;;;;;;1.00;1.00;;;;;;;10.04;84.65;99442.69;5071386;28;20202;-57
2022/10/20 01:27:44;;;;;;;0.80;0.77;;;;;;;9.95;85.06;99451.75;5071674;28;20638;-57
2022/10/20 01:30:15;;;;;;;0.87;0.87;;;;;;;10.12;84.69;99460.88;5009168;28;20252;-57
2022/10/20 01:33:09;;;;;;;0.67;0.67;;;;;;;10.02;85.02;99458.09;5059030;28;20237;-57
2022/10/20 01:35:47;;;;;;;1.10;1.00;;;;;;;10.06;85.35;99464.66;5065061;28;20646;-57
2022/10/20 01:38:23;;;;;;;1.40;1.30;;;;;;;10.03;85.87;99464.84;5071383;28;20195;-57
2022/10/20 01:40:55;;;;;;;0.90;0.90;;;;;;;10.02;85.43;99463.22;5070964;28;20609;-62
2022/10/20 01:43:27;;;;;;;1.30;1.20;;;;;;;10.03;85.36;99467.41;5071151;28;20201;-62
2022/10/20 01:45:55;;;;;;;1.33;0.70;;;;;;;10.19;84.74;99468.06;5071044;28;20219;-62
2022/10/20 01:48:26;;;;;;;1.03;0.83;;;;;;;10.10;84.83;99463.56;5071253;28;20633;-62
2022/10/20 01:50:53;;;;;;;0.80;0.80;;;;;;;10.01;85.07;99464.16;5070867;28;20230;-57
2022/10/20 01:53:20;;;;;;;1.23;1.13;;;;;;;10.06;84.83;99466.38;5071132;28;20585;-57
2022/10/20 01:55:50;;;;;;;0.67;0.67;;;;;;;9.92;85.24;99469.84;5070848;28;20706;-62
2022/10/20 01:59:04;;;;;;;1.33;1.23;;;;;;;9.85;85.46;99483.91;5070742;28;20197;-57
2022/10/20 02:01:45;;;;;;;0.60;0.60;;;;;;;9.74;85.67;99503.28;5065480;28;20217;-58
2022/10/20 02:04:13;;;;;;;3.20;1.03;;;;;;;9.62;86.07;99493.00;5070613;28;20209;-62
2022/10/20 02:06:48;;;;;;;1.30;1.20;;;;;;;9.55;86.23;99486.63;5071029;28;20210;-62
2022/10/20 02:09:19;;;;;;;0.70;0.70;;;;;;;9.58;86.44;99482.16;5070620;28;20198;-61
2022/10/20 02:11:52;;;;;;;2.10;0.90;;;;;;;9.53;86.58;99499.47;5070812;28;20234;-62
2022/10/20 02:14:20;;;;;;;0.87;0.87;;;;;;;9.56;86.53;99489.06;5070461;28;20195;-62
2022/10/20 02:16:52;;;;;;;1.20;0.67;;;;;;;9.59;86.41;99488.88;5070709;28;20698;-62
2022/10/20 02:19:23;;;;;;;0.70;0.70;;;;;;;9.59;86.46;99482.97;5070106;28;20202;-57
2022/10/20 02:21:51;;;;;;;0.73;0.73;;;;;;;9.58;86.49;99482.16;5069620;28;20199;-62
2022/10/20 02:24:22;;;;;;;2.57;0.93;;;;;;;9.52;86.74;99482.53;5070236;28;20202;-57
2022/10/20 02:26:51;;;;;;;0.70;0.70;;;;;;;9.49;86.83;99487.81;5070584;28;20206;-57
2022/10/20 02:29:24;;;;;;;0.40;0.40;;;;;;;9.49;86.67;99508.25;5070068;28;20693;-62
2022/10/20 02:31:53;;;;;;;0.77;0.77;;;;;;;9.47;86.78;99510.06;5070319;28;20710;-57
2022/10/20 02:34:20;;;;;;;0.97;0.97;;;;;;;9.47;86.62;99499.84;5070148;28;20252;-57
2022/10/20 02:36:46;;;;;;;1.30;1.00;;;;;;;9.48;86.72;99501.47;5070185;28;20637;-62
2022/10/20 02:39:13;;;;;;;1.67;1.33;;;;;;;9.55;86.72;99507.88;5069945;28;20191;-57
2022/10/20 02:41:40;;;;;;;1.57;1.40;;;;;;;9.55;86.55;99518.06;5070333;28;20202;-62
2022/10/20 02:44:07;;;;;;;0.73;0.73;;;;;;;9.54;87.10;99516.44;5069927;28;20198;-62
2022/10/20 02:46:33;;;;;;;1.17;1.07;;;;;;;9.51;86.75;99516.59;5070143;28;20207;-57
2022/10/20 02:49:02;;;;;;;1.67;1.57;;;;;;;9.42;87.24;99524.81;5070023;28;20198;-62
2022/10/20 02:51:28;;;;;;;1.33;1.23;;;;;;;9.47;87.29;99530.47;5069782;28;20238;-62
2022/10/20 02:53:55;;;;;;;1.07;0.97;;;;;;;9.50;86.99;99531.09;5069880;28;20205;-57
2022/10/20 02:56:22;;;;;;;0.70;0.70;;;;;;;9.48;87.09;99522.75;5069975;28;20225;-62
2022/10/20 02:58:49;;;;;;;1.33;1.27;;;;;;;9.48;86.95;99537.22;5069880;28;20226;-62
2022/10/20 03:01:16;;;;;;;0.93;0.70;;;;;;;9.46;87.03;99529.66;5069670;28;20718;-62
2022/10/20 03:03:43;;;;;;;0.77;0.77;;;;;;;9.36;87.35;99537.97;5070166;28;20194;-57
2022/10/20 03:06:14;;;;;;;2.00;1.23;;;;;;;9.40;87.70;99545.34;5069400;28;20233;-62
2022/10/20 03:08:41;;;;;;;1.23;0.63;;;;;;;9.35;87.84;99542.25;5069799;28;20206;-62
2022/10/20 03:11:08;;;;;;;0.87;0.87;;;;;;;9.34;87.80;99539.78;5069900;28;20582;-57
2022/10/20 03:13:35;;;;;;;1.27;1.10;;;;;;;9.31;87.73;99540.81;5069976;28;20242;-57
2022/10/20 03:16:02;;;;;;;0.80;0.80;;;;;;;9.28;87.87;99546.91;5069590;28;20230;-57
2022/10/20 03:18:29;;;;;;;0.67;0.63;;;;;;;9.29;87.93;99543.44;5069878;28;20683;-62
2022/10/20 03:20:55;;;;;;;0.87;0.87;;;;;;;9.32;87.59;99552.63;5069337;28;20710;-62
2022/10/20 03:23:24;;;;;;;1.47;1.37;;;;;;;9.36;87.39;99553.28;5069726;28;20747;-62
2022/10/20 03:25:50;;;;;;;1.30;1.20;;;;;;;9.40;87.19;99554.75;5069617;28;20221;-57
2022/10/20 03:28:17;;;;;;;1.10;1.10;;;;;;;9.27;87.67;99550.34;5069577;28;20194;-57
2022/10/20 03:30:45;;;;;;;0.90;0.60;;;;;;;9.30;87.30;99555.28;5069715;28;20219;-57
2022/10/20 03:33:12;;;;;;;1.10;0.77;;;;;;;9.25;87.33;99553.91;5070373;28;20226;-57
2022/10/20 03:35:39;;;;;;;1.10;1.00;;;;;;;9.16;87.81;99557.84;5073911;28;20414;-62
2022/10/20 03:38:05;;;;;;;1.13;1.03;;;;;;;9.10;88.01;99553.06;5073606;28;20194;-57
2022/10/20 03:40:33;;;;;;;1.47;1.20;;;;;;;8.99;88.56;99553.72;5073519;28;20211;-57
2022/10/20 03:43:00;;;;;;;1.17;1.10;;;;;;;9.08;88.47;99560.03;5073512;28;20199;-62
2022/10/20 03:45:27;;;;;;;0.97;0.93;;;;;;;9.10;88.50;99563.28;5073090;28;20217;-62
2022/10/20 03:47:54;;;;;;;1.33;1.23;;;;;;;9.14;88.57;99566.50;5073289;28;20202;-61
2022/10/20 03:50:21;;;;;;;1.43;1.03;;;;;;;9.18;88.45;99561.09;5072954;28;20218;-57
2022/10/20 03:52:48;;;;;;;1.57;1.47;;;;;;;9.17;88.45;99564.56;5073159;28;20234;-57
2022/10/20 03:55:14;;;;;;;1.50;1.40;;;;;;;9.21;88.45;99570.31;5073287;28;20218;-57
2022/10/20 03:57:43;;;;;;;1.63;1.53;;;;;;;9.16;88.21;99573.16;5073216;28;20197;-60
2022/10/20 04:00:11;;;;;;;1.63;1.53;;;;;;;9.14;88.17;99569.84;5073092;28;20699;-62
2022/10/20 04:02:41;;;;;;;1.03;0.73;;;;;;;9.12;88.09;99569.13;5073403;28;20206;-56
2022/10/20 04:05:09;;;;;;;0.87;0.87;;;;;;;9.04;88.04;99572.09;5073191;28;20218;-62
2022/10/20 04:07:35;;;;;;;1.47;1.37;;;;;;;9.00;88.22;99573.22;5073348;28;20198;-57
2022/10/20 04:10:02;;;;;;;0.73;0.73;;;;;;;8.97;88.08;99577.66;5072634;28;20726;-62
2022/10/20 04:12:29;;;;;;;0.90;0.73;;;;;;;8.92;88.21;99580.47;5072861;28;20721;-57
2022/10/20 04:14:57;;;;;;;0.60;0.60;;;;;;;8.91;88.19;99583.13;5072509;28;20640;-57
2022/10/20 04:17:24;;;;;;;2.17;1.23;;;;;;;8.78;88.13;99581.25;5072868;28;20202;-62
2022/10/20 04:19:51;;;;;;;0.40;0.40;;;;;;;8.81;88.25;99588.75;5072447;28;20643;-62
2022/10/20 04:22:18;;;;;;;0.87;0.83;;;;;;;8.76;88.50;99583.09;5072616;28;20219;-62
2022/10/20 04:24:45;;;;;;;1.50;0.90;;;;;;;8.80;88.53;99587.09;5072391;28;20222;-62
2022/10/20 04:27:11;;;;;;;0.97;0.80;;;;;;;8.75;88.65;99594.19;5072587;28;20202;-62
2022/10/20 04:29:38;;;;;;;1.17;0.97;;;;;;;8.75;88.87;99598.47;5072608;28;20215;-62
2022/10/20 04:32:06;;;;;;;1.83;0.87;;;;;;;8.63;88.92;99589.78;5072650;28;20223;-56
2022/10/20 04:34:34;;;;;;;0.77;0.77;;;;;;;8.61;89.11;99594.16;5072487;28;20230;-57
2022/10/20 04:37:01;;;;;;;1.00;1.00;;;;;;;8.52;89.38;99602.28;5072506;28;20469;-57
2022/10/20 04:39:28;;;;;;;1.13;0.70;;;;;;;8.45;89.86;99606.09;5072409;28;20230;-57
2022/10/20 04:41:54;;;;;;;0.87;0.77;;;;;;;8.39;90.82;99602.97;5072337;28;20206;-62
2022/10/20 04:44:21;;;;;;;0.97;0.87;;;;;;;8.34;92.53;99604.91;5071618;28;20671;-57
2022/10/20 04:46:48;;;;;;;1.03;0.77;;;;;;;8.46;92.66;99608.53;5072222;28;20690;-61
2022/10/20 04:49:16;;;;;;;1.00;0.90;;;;;;;8.49;92.97;99615.19;5072119;28;20195;-62
2022/10/20 04:51:43;;;;;;;1.73;1.63;;;;;;;8.48;93.34;99622.03;5072534;28;20222;-57
2022/10/20 04:54:10;;;;;;;1.20;1.03;;;;;;;8.53;93.44;99624.34;5072022;28;20199;-61
2022/10/20 04:56:36;;;;;;;1.13;1.03;;;;;;;8.55;93.75;99623.34;5072063;28;20209;-57
2022/10/20 04:59:04;;;;;;;1.80;1.27;;;;;;;8.59;93.72;99629.09;5072067;28;20198;-57
2022/10/20 05:01:31;;;;;;;2.20;1.13;;;;;;;8.62;93.81;99639.13;5072294;28;20199;-57
2022/10/20 05:03:58;;;;;;;1.77;1.40;;;;;;;8.59;93.85;99644.38;5072090;28;20589;-56
2022/10/20 05:06:29;;;;;;;1.20;1.00;;;;;;;8.51;94.21;99647.34;5071528;28;20218;-61
2022/10/20 05:08:58;;;;;;;1.37;1.20;;;;;;;8.50;94.75;99644.91;5072110;28;20583;-57
2022/10/20 05:11:26;;;;;;;2.17;1.97;;;;;;;8.53;94.84;99644.72;5071654;28;20230;-57
2022/10/20 05:13:53;;;;;;;2.40;1.70;;;;;;;8.54;95.37;99646.34;5071872;28;20234;-62
2022/10/20 05:16:20;;;;;;;2.10;1.43;;;;;;;8.54;95.16;99651.47;5071540;28;20226;-62
2022/10/20 05:18:47;;;;;;;1.10;1.00;;;;;;;8.55;95.14;99658.19;5071611;28;20199;-58
2022/10/20 05:21:16;;;;;;;1.37;1.17;;;;;;;8.46;95.54;99668.88;5071585;28;20660;-57
2022/10/20 05:23:44;;;;;;;1.20;1.10;;;;;;;8.49;95.35;99673.81;5071827;28;20199;-62
2022/10/20 05:26:13;;;;;;;1.93;1.20;;;;;;;8.54;94.89;99676.94;5071646;28;20222;-62
2022/10/20 05:28:42;;;;;;;1.73;1.37;;;;;;;8.49;95.08;99684.81;5071715;28;20199;-62
2022/10/20 05:31:09;;;;;;;1.40;1.30;;;;;;;8.58;94.77;99693.69;5071223;28;20264;-57
2022/10/20 05:33:36;;;;;;;1.17;1.07;;;;;;;8.70;94.22;99693.06;5071460;28;20242;-57
2022/10/20 05:36:08;;;;;;;1.30;1.20;;;;;;;8.71;93.99;99704.88;5071271;28;20217;-62
2022/10/20 05:38:35;;;;;;;1.40;1.30;;;;;;;8.85;93.55;99701.59;5071497;28;20191;-56
2022/10/20 05:41:08;;;;;;;1.50;1.40;;;;;;;8.95;92.90;99709.53;5071106;28;20598;-59
2022/10/20 05:43:34;;;;;;;1.00;0.90;;;;;;;9.05;92.64;99713.22;5071769;28;20199;-57
2022/10/20 05:46:02;;;;;;;1.50;1.40;;;;;;;9.16;92.65;99716.00;5070959;28;20840;-63
2022/10/20 05:48:28;;;;;;;1.37;1.27;;;;;;;9.34;92.18;99713.28;5071116;28;20210;-62
2022/10/20 05:50:55;;;;;;;0.80;0.80;;;;;;;9.52;91.61;99719.91;5071217;28;20733;-62
2022/10/20 05:53:22;;;;;;;1.20;0.70;;;;;;;9.70;90.89;99729.06;5070845;28;20793;-57
2022/10/20 05:55:49;;;;;;;1.13;1.03;;;;;;;9.82;90.50;99739.47;5070795;28;20740;-57
2022/10/20 05:58:17;;;;;;;0.80;0.80;;;;;;;10.16;89.90;99744.22;5070843;28;20210;-62
2022/10/20 06:00:51;;;;;;;0.97;0.87;;;;;;;10.55;87.76;99752.97;5070591;28;20219;-62
2022/10/20 06:03:18;;;;;;;1.33;1.20;;;;;;;10.88;86.45;99756.91;5070696;28;20225;-62
2022/10/20 06:05:45;;;;;;;1.30;1.20;;;;;;;10.89;85.18;99753.44;5070779;28;20297;-57
2022/10/20 06:08:11;;;;;;;1.43;1.33;;;;;;;11.18;84.72;99755.91;5070623;28;20666;-57
2022/10/20 06:10:38;;;;;;;0.87;0.87;;;;;;;11.38;83.70;99762.28;5070644;28;20241;-57
2022/10/20 06:13:05;;;;;;;0.67;0.67;;;;;;;11.60;82.45;99765.06;5070792;28;20610;-57
2022/10/20 06:15:34;;;;;;;2.87;1.20;;;;;;;11.94;81.31;99768.00;5070819;28;20222;-57
2022/10/20 06:18:00;;;;;;;1.37;1.27;;;;;;;12.32;80.28;99782.53;5070767;28;20198;-62
2022/10/20 06:20:27;;;;;;;2.03;1.33;;;;;;;12.54;78.54;99781.91;5070194;28;20229;-62
2022/10/20 06:22:54;;;;;;;1.07;1.03;;;;;;;12.91;78.15;99796.38;5070399;28;20695;-57
2022/10/20 06:25:21;;;;;;;2.13;0.90;;;;;;;13.30;75.65;99797.03;5070451;28;20223;-62
2022/10/20 06:27:47;;;;;;;0.53;0.53;;;;;;;13.59;74.01;99801.81;5070713;28;20202;-62
2022/10/20 06:30:14;;;;;;;1.07;1.03;;;;;;;13.70;72.34;99799.28;5070054;28;20210;-63
2022/10/20 06:32:43;;;;;;;1.43;1.17;;;;;;;14.13;72.82;99805.50;5070156;28;20229;-57
2022/10/20 06:35:09;;;;;;;1.23;1.17;;;;;;;14.23;71.72;99806.47;5069998;28;20211;-57
2022/10/20 06:37:36;;;;;;;0.80;0.80;;;;;;;14.41;70.82;99809.38;5070270;28;20191;-63
2022/10/20 06:40:03;;;;;;;1.60;1.50;;;;;;;14.75;68.78;99815.34;5069942;28;20234;-60
2022/10/20 06:42:31;;;;;;;1.00;1.00;;;;;;;15.01;67.79;99817.63;5070326;28;20740;-57
2022/10/20 06:44:58;;;;;;;0.83;0.83;;;;;;;15.26;65.74;99824.22;5069979;28;20722;-58
2022/10/20 06:47:24;;;;;;;2.37;1.90;;;;;;;15.49;64.16;99830.94;5070262;28;20248;-62
2022/10/20 06:49:52;;;;;;;3.30;1.50;;;;;;;15.73;63.24;99835.06;5070163;28;20741;-63
2022/10/20 06:52:19;;;;;;;2.23;1.50;;;;;;;15.91;61.85;99831.00;5069911;28;20194;-57
2022/10/20 06:54:46;;;;;;;2.90;1.60;;;;;;;16.06;61.45;99839.22;5069799;28;20230;-62
2022/10/20 06:57:13;;;;;;;2.03;1.80;;;;;;;16.22;61.06;99838.75;5069938;28;20628;-61
2022/10/20 06:59:40;;;;;;;1.63;1.40;;;;;;;16.35;58.77;99841.09;5069976;28;20686;-57
2022/10/20 07:02:06;;;;;;;1.97;1.53;;;;;;;16.41;57.34;99843.19;5070071;28;20202;-62
2022/10/20 07:04:33;;;;;;;1.73;1.40;;;;;;;16.52;56.33;99843.91;5070018;28;20222;-60
2022/10/20 07:07:01;;;;;;;2.77;2.07;;;;;;;16.68;55.47;99848.56;5069821;28;20221;-62
2022/10/20 07:09:28;;;;;;;3.33;1.37;;;;;;;16.46;58.39;99844.44;5069182;28;20227;-63
2022/10/20 07:11:55;;;;;;;3.40;2.13;;;;;;;16.37;60.09;99839.22;5069598;28;20592;-62
2022/10/20 07:14:22;;;;;;;1.57;1.37;;;;;;;16.27;60.39;99844.34;5069715;28;20234;-57
2022/10/20 07:16:49;;;;;;;1.87;1.70;;;;;;;16.42;61.76;99837.88;5069651;28;20562;-63
2022/10/20 07:19:16;;;;;;;2.77;1.70;;;;;;;17.04;59.26;99842.97;5069651;28;20210;-63
2022/10/20 07:21:43;;;;;;;2.33;2.00;;;;;;;17.18;56.61;99840.81;5069552;28;20194;-57
2022/10/20 07:24:12;;;;;;;2.57;1.80;;;;;;;17.58;56.67;99841.66;5069654;28;20681;-63
2022/10/20 07:26:40;;;;;;;2.27;1.70;;;;;;;17.75;57.38;99843.53;5069504;28;20698;-63
2022/10/20 07:29:07;;;;;;;2.87;2.17;;;;;;;17.81;52.33;99847.38;5069666;28;20202;-62
2022/10/20 07:31:37;;;;;;;1.90;1.67;;;;;;;17.82;53.56;99849.81;5069729;28;20195;-63
2022/10/20 07:34:05;;;;;;;4.93;2.20;;;;;;;17.71;56.05;99847.34;5069715;28;20658;-57
2022/10/20 07:36:33;;;;;;;2.77;2.10;;;;;;;17.54;56.55;99845.44;5069971;28;20252;-57
2022/10/20 07:39:02;;;;;;;2.63;1.53;;;;;;;17.78;55.59;99847.66;5069399;28;20206;-63
2022/10/20 07:41:31;;;;;;;2.60;1.70;;;;;;;18.31;54.41;99845.31;5069585;28;20203;-57
2022/10/20 07:43:58;;;;;;;2.13;1.63;;;;;;;18.74;54.27;99843.94;5069437;28;20580;-62
2022/10/20 07:46:26;;;;;;;3.70;2.03;;;;;;;18.81;51.43;99836.41;5069363;28;20505;-61
2022/10/20 07:48:52;;;;;;;2.97;2.17;;;;;;;18.27;52.27;99833.63;5069359;28;20201;-57
2022/10/20 07:51:29;;;;;;;2.20;1.77;;;;;;;18.13;52.85;99835.88;5069207;28;20737;-57
2022/10/20 07:53:57;;;;;;;3.00;1.93;;;;;;;16.69;54.39;99836.47;5069463;28;20241;-62
2022/10/20 07:56:24;;;;;;;2.70;1.83;;;;;;;16.70;57.18;99835.53;5069121;28;20257;-57
2022/10/20 07:58:54;;;;;;;2.10;1.73;;;;;;;17.23;55.06;99839.63;5069296;28;20574;-63
2022/10/20 08:01:20;;;;;;;3.23;2.10;;;;;;;17.73;53.58;99842.84;5069013;28;20225;-62
2022/10/20 08:03:47;;;;;;;3.37;1.73;;;;;;;17.51;54.33;99856.06;5069632;28;20198;-63
2022/10/20 08:06:14;;;;;;;2.43;1.87;;;;;;;17.18;52.71;99858.09;5069279;28;20624;-60
2022/10/20 08:08:41;;;;;;;2.80;1.90;;;;;;;18.12;53.23;99857.50;5069112;28;20199;-58
2022/10/20 08:11:08;;;;;;;3.23;1.87;;;;;;;18.57;51.58;99865.41;5069263;28;20254;-58
2022/10/20 08:13:35;;;;;;;2.67;1.83;;;;;;;19.25;50.18;99861.63;5069566;28;20225;-63
2022/10/20 08:16:04;;;;;;;3.47;1.67;;;;;;;19.04;49.12;99852.34;5069066;28;20220;-58
2022/10/20 08:18:31;;;;;;;6.43;2.60;;;;;;;19.28;49.07;99848.38;5069169;28;20201;-58
2022/10/20 08:21:06;;;;;;;4.53;2.00;;;;;;;19.03;49.69;99845.56;5070974;28;20230;-63
2022/10/20 08:23:33;;;;;;;4.70;2.30;;;;;;;18.37;50.68;99853.50;5072733;28;20201;-58
2022/10/20 08:26:00;;;;;;;3.00;1.97;;;;;;;18.42;49.63;99846.13;5072492;28;20223;-58
2022/10/20 08:28:27;;;;;;;3.93;2.27;;;;;;;19.00;48.88;99849.25;5072753;28;20205;-63
2022/10/20 08:30:54;;;;;;;4.67;1.80;;;;;;;19.36;51.35;99856.22;5072255;28;20229;-63
2022/10/20 08:33:22;;;;;;;2.80;2.07;;;;;;;19.42;50.13;99860.81;5072456;28;20230;-63
2022/10/20 08:35:49;;;;;;;3.20;2.10;;;;;;;19.93;47.64;99859.31;5072397;28;20233;-58
2022/10/20 08:38:15;;;;;;;3.03;2.27;;;;;;;20.20;46.81;99854.91;5072564;28;20580;-58
2022/10/20 08:40:44;;;;;;;4.33;2.30;;;;;;;20.21;46.96;99846.16;5072640;28;20218;-58
2022/10/20 08:43:17;;;;;;;7.93;2.77;;;;;;;20.66;46.19;99860.69;5072432;28;20199;-58
2022/10/20 08:45:44;;;;;;;3.83;2.07;;;;;;;20.31;46.28;99857.25;5072499;28;20223;-63
2022/10/20 08:48:18;;;;;;;3.80;2.20;;;;;;;19.97;47.20;99868.41;5072483;28;20610;-63
2022/10/20 08:50:50;;;;;;;4.07;2.40;;;;;;;19.70;49.73;99858.97;5072409;28;20220;-63
2022/10/20 08:53:20;;;;;;;6.17;2.33;;;;;;;19.96;48.33;99868.56;5072379;28;20204;-62
2022/10/20 08:55:47;;;;;;;2.50;1.93;;;;;;;19.95;48.14;99859.94;5072314;28;20216;-58
2022/10/20 08:58:16;;;;;;;3.43;2.13;;;;;;;20.11;47.86;99862.66;5072310;28;20207;-58
2022/10/20 09:00:44;;;;;;;4.93;2.30;;;;;;;21.02;47.26;99867.28;5071804;28;20220;-58
2022/10/20 09:03:17;;;;;;;3.43;2.07;;;;;;;21.26;45.81;99873.50;5072626;28;20202;-64
2022/10/20 09:05:49;;;;;;;4.70;2.43;;;;;;;21.34;45.92;99868.31;5071898;28;20218;-58
2022/10/20 09:08:17;;;;;;;2.13;1.80;;;;;;;21.43;44.50;99875.16;5071913;28;20670;-58
2022/10/20 09:10:47;;;;;;;4.33;2.10;;;;;;;20.53;47.75;99874.09;5071796;28;20223;-58
2022/10/20 09:13:22;;;;;;;3.17;1.93;;;;;;;20.78;46.55;99869.81;5071826;28;20220;-63
2022/10/20 09:15:50;;;;;;;1.70;1.57;;;;;;;21.11;46.73;99875.09;5071673;28;20866;-58
2022/10/20 09:18:18;;;;;;;6.20;2.23;;;;;;;21.14;47.52;99872.19;5071768;28;20694;-57
2022/10/20 09:20:53;;;;;;;2.60;1.87;;;;;;;21.13;46.10;99867.97;5071904;28;20221;-63
2022/10/20 09:23:23;;;;;;;3.57;2.37;;;;;;;20.86;45.31;99872.44;5071470;28;20194;-63
2022/10/20 09:25:52;;;;;;;3.90;2.30;;;;;;;20.44;45.99;99873.22;5071570;28;20701;-64
2022/10/20 09:28:23;;;;;;;4.00;2.50;;;;;;;20.54;46.99;99871.34;5071731;28;20222;-58
2022/10/20 09:30:50;;;;;;;2.33;1.90;;;;;;;21.23;45.55;99873.81;5071525;28;20874;-58
2022/10/20 09:33:21;;;;;;;3.27;2.13;;;;;;;21.46;44.47;99869.63;5071318;28;20209;-63
2022/10/20 09:35:51;;;;;;;3.13;2.33;;;;;;;20.55;45.63;99872.97;5071182;28;20609;-58
2022/10/20 09:38:22;;;;;;;4.00;2.23;;;;;;;21.02;46.03;99874.25;5071298;28;20203;-63
2022/10/20 09:41:01;;;;;;;2.20;1.97;;;;;;;20.91;47.46;99867.56;5071694;28;20263;-63
2022/10/20 09:43:28;;;;;;;3.10;2.27;;;;;;;21.17;45.18;99867.47;5071231;28;20195;-63
2022/10/20 09:45:59;;;;;;;3.40;2.33;;;;;;;21.83;45.31;99876.16;5071231;28;20247;-64
2022/10/20 09:48:29;;;;;;;2.80;2.03;;;;;;;21.80;43.38;99871.28;5071245;28;20202;-58
2022/10/20 09:50:59;;;;;;;2.60;1.83;;;;;;;21.40;43.16;99877.28;5070964;28;20225;-64
2022/10/20 09:53:29;;;;;;;3.30;2.13;;;;;;;21.88;44.56;99873.06;5071299;28;20557;-58
2022/10/20 09:55:56;;;;;;;2.83;1.87;;;;;;;21.56;45.16;99868.69;5071108;28;20221;-58
2022/10/20 09:58:28;;;;;;;3.20;2.00;;;;;;;21.95;42.56;99883.63;5070844;28;20387;-64
2022/10/20 10:00:59;;;;;;;2.63;2.03;;;;;;;22.14;42.19;99883.28;5070683;28;20253;-60
2022/10/20 10:03:26;;;;;;;2.20;1.70;;;;;;;22.48;42.90;99872.59;5070663;28;20188;-63
2022/10/20 10:05:54;;;;;;;4.77;2.23;;;;;;;22.15;42.83;99866.66;5070311;28;20221;-58
2022/10/20 10:08:25;;;;;;;3.40;1.90;;;;;;;20.76;43.14;99866.56;5070856;28;20195;-64
2022/10/20 10:11:02;;;;;;;2.87;2.17;;;;;;;19.47;47.04;99875.94;5070561;28;20228;-63
2022/10/20 10:13:32;;;;;;;2.37;1.77;;;;;;;20.72;46.45;99868.66;5070664;28;20201;-64
2022/10/20 10:16:06;;;;;;;2.57;2.10;;;;;;;21.95;45.48;99873.22;5070378;28;20220;-58
2022/10/20 10:18:34;;;;;;;2.80;1.83;;;;;;;22.09;42.12;99869.94;5070643;28;20198;-58
2022/10/20 10:21:04;;;;;;;3.17;2.43;;;;;;;22.34;43.18;99863.72;5070471;28;20225;-58
2022/10/20 10:23:39;;;;;;;3.20;2.10;;;;;;;22.60;40.82;99857.41;5070257;28;20215;-58
2022/10/20 10:26:35;;;;;;;2.87;1.90;;;;;;;21.93;41.58;99855.13;5070251;28;20266;-64
2022/10/20 10:29:02;;;;;;;2.33;1.90;;;;;;;22.24;42.03;99852.66;5070558;28;20565;-58
2022/10/20 10:31:28;;;;;;;2.33;1.92;;;;;;;22.94;42.43;99845.84;5070040;28;20215;-64
2022/10/20 10:34:22;;;;;;;3.35;2.30;;;;;;;23.19;41.49;99852.56;5070278;28;20231;-60
2022/10/20 10:36:48;;;;;;;4.13;2.28;;;;;;;23.51;40.62;99840.25;5070148;28;20599;-64
2022/10/20 10:39:17;;;;;;;3.60;2.20;;;;;;;22.21;40.43;99839.16;5070001;28;20199;-64
2022/10/20 10:41:57;;;;;;;3.50;2.47;;;;;;;22.32;42.50;99833.59;5070102;28;20210;-64
2022/10/20 10:44:37;;;;;;;2.15;1.95;;;;;;;23.31;42.04;99833.88;5069381;28;20209;-64
2022/10/20 10:47:28;;;;;;;2.30;1.88;;;;;;;23.45;40.28;99825.28;5070249;28;20703;-64
2022/10/20 10:50:02;;;;;;;2.83;1.75;;;;;;;23.11;40.66;99816.09;5070094;28;20237;-64
2022/10/20 10:52:41;;;;;;;1.98;1.52;;;;;;;23.47;39.30;99818.06;5070022;28;20311;-58
2022/10/20 10:55:18;;;;;;;2.67;1.88;;;;;;;23.25;38.68;99815.34;5070271;28;20250;-64
2022/10/20 10:57:57;;;;;;;3.20;2.03;;;;;;;23.35;38.93;99814.28;5069876;28;20202;-58
2022/10/20 11:00:38;;;;;;;1.48;1.35;;;;;;;23.20;39.28;99815.03;5070115;28;20296;-58
2022/10/20 11:03:19;;;;;;;2.92;2.03;;;;;;;23.41;38.28;99821.41;5070130;28;20722;-62
2022/10/20 11:06:07;;;;;;;1.60;1.40;;;;;;;23.38;38.41;99814.72;5070123;28;20241;-59
2022/10/20 11:09:09;;;;;;;2.33;1.75;;;;;;;24.07;37.02;99801.53;5069750;28;20198;-64
2022/10/20 11:11:52;;;;;;;2.17;1.50;;;;;;;24.43;37.33;99800.78;5070157;28;20292;-64
2022/10/20 11:14:32;;;;;;;2.00;1.80;;;;;;;24.43;37.32;99798.16;5068304;28;20221;-58
2022/10/20 11:17:15;;;;;;;3.25;2.08;;;;;;;24.52;36.46;99793.66;5069572;28;20217;-62
2022/10/20 11:20:03;;;;;;;3.13;1.63;;;;;;;24.38;36.70;99797.91;5070115;28;20597;-58
2022/10/20 11:22:41;;;;;;;2.72;1.65;;;;;;;23.90;37.49;99792.25;5069583;28;20210;-64
2022/10/20 11:25:25;;;;;;;1.50;1.40;;;;;;;23.82;36.78;99792.31;5069897;28;20237;-58
2022/10/20 11:27:56;;;;;;;1.60;1.25;;;;;;;23.99;37.57;99796.38;5070045;28;20210;-64
2022/10/20 11:30:26;;;;;;;1.80;1.55;;;;;;;23.43;37.76;99796.75;5069626;28;20227;-58
2022/10/20 11:32:57;;;;;;;2.40;1.63;;;;;;;23.60;38.37;99801.84;5069727;28;20229;-58
2022/10/20 11:35:33;;;;;;;2.15;1.63;;;;;;;23.60;38.08;99800.03;5069469;28;20725;-58
2022/10/20 11:38:15;;;;;;;2.10;1.48;;;;;;;23.80;38.42;99796.94;5069715;28;20210;-64
2022/10/20 11:40:48;;;;;;;1.98;1.58;;;;;;;23.81;36.99;99798.56;5069334;28;20268;-58
2022/10/20 11:43:25;;;;;;;1.80;1.30;;;;;;;23.61;36.26;99791.19;5070277;28;20291;-58
2022/10/20 11:45:56;;;;;;;1.50;1.13;;;;;;;23.08;38.17;99792.97;5069671;28;20237;-64
2022/10/20 11:48:27;;;;;;;1.98;1.67;;;;;;;23.43;37.83;99786.31;5069994;28;20592;-58
2022/10/20 11:51:10;;;;;;;1.88;1.45;;;;;;;23.62;37.12;99795.44;5069215;28;20309;-64